Linthicum Heights, MD (21090)

10:46 AM EDT on July 29, 2016 (GMT -0400)
Linthicum-Shipley | | Change Station

Elev 190 ft 39.20 °N, 76.66 °W | Updated 13 minutes ago

Scattered Clouds
Scattered Clouds
79.0 °F
Feels Like 82 °F
N
4.7
Wind Variable Wind from ENE

Today
High -- | Low -- °F
--% Chance of Precip.
Yesterday
High -- | Low -- °F
Precip. -- in
Pressure 29.87 in
Visibility 10.0 miles
Clouds Scattered Clouds 1500 ft
Heat Index 82 °F
Dew Point 71 °F
Humidity 77%
Rainfall 0.82 in
Snow Depth Not available.
6:04 AM 8:21 PM
Waning Crescent, 21% visible
METAR KBWI 291354Z 32006KT 10SM SCT015 26/21 A2987 RMK AO2 SLP113 T02610206
Pressure 29.87 in
Visibility 10.0 miles
Clouds Scattered Clouds 1500 ft
Heat Index 82 °F
Dew Point 71 °F
Humidity 77%
Rainfall 0.82 in
Snow Depth Not available.
6:04 AM 8:21 PM
Waning Crescent, 21% visible
METAR KBWI 291354Z 32006KT 10SM SCT015 26/21 A2987 RMK AO2 SLP113 T02610206

10-Day Weather Forecast

Almanac

Astronomy

Jul. 29, 2016 Rise Set
Actual Time
Civil Twilight
Nautical Twilight
Astronomical Twilight
Moon
Length of Visible Light
Length of Day
Tomorrow will be .
, % of the Moon is Illuminated

Today's Extremes

State Highs State Lows

Community

WunderPhotos

Upload Photos

1,928,343 photos uploaded!

WunderBlog® & News

Nearby

Air Quality

  Air Quality AQ Index Pollutant
Not available.

Snow Depth

Station Depth Elevation

Earthquake Activity

City Distance Mag. Time & Date
Minimum magnitude displayed is 2.5.

Coastal Water Temperatures

Place Temperature

Stations

Nearby Weather Stations

Station Location Temp. Windchill Dew Point Humidity Wind Precip. Elev Updated Type
                   

Watches & Warnings

There are currently no watches in effect.